sensor_id;sensor_type;location;lat;lon;timestamp;pressure;altitude;pressure_sealevel;temperature
64904;BMP280;51401;48.882;12.598;2023-04-01T00:01:53;85382.72;;;9.34
64904;BMP280;51401;48.882;12.598;2023-04-01T00:04:19;85414.28;;;9.32
64904;BMP280;51401;48.882;12.598;2023-04-01T00:06:45;85494.13;;;9.30
64904;BMP280;51401;48.882;12.598;2023-04-01T00:12:26;85557.28;;;9.27
64904;BMP280;51401;48.882;12.598;2023-04-01T00:14:51;85476.16;;;9.26
64904;BMP280;51401;48.882;12.598;2023-04-01T00:17:16;85491.59;;;9.26
64904;BMP280;51401;48.882;12.598;2023-04-01T00:19:42;85476.13;;;9.28
64904;BMP280;51401;48.882;12.598;2023-04-01T00:22:07;85515.44;;;9.25
64904;BMP280;51401;48.882;12.598;2023-04-01T00:24:36;85484.53;;;9.25
64904;BMP280;51401;48.882;12.598;2023-04-01T00:27:02;85599.78;;;9.24
64904;BMP280;51401;48.882;12.598;2023-04-01T00:29:27;85447.22;;;9.20
64904;BMP280;51401;48.882;12.598;2023-04-01T00:31:55;85542.47;;;9.28
64904;BMP280;51401;48.882;12.598;2023-04-01T00:34:20;85679.00;;;9.28
64904;BMP280;51401;48.882;12.598;2023-04-01T00:36:50;85922.44;;;9.36
64904;BMP280;51401;48.882;12.598;2023-04-01T00:39:16;86085.38;;;9.39
64904;BMP280;51401;48.882;12.598;2023-04-01T00:41:41;86322.47;;;9.41
64904;BMP280;51401;48.882;12.598;2023-04-01T00:44:30;86318.56;;;9.36
64904;BMP280;51401;48.882;12.598;2023-04-01T00:47:05;86301.81;;;9.35
64904;BMP280;51401;48.882;12.598;2023-04-01T00:49:33;86390.75;;;9.40
64904;BMP280;51401;48.882;12.598;2023-04-01T00:52:02;86585.97;;;9.41
64904;BMP280;51401;48.882;12.598;2023-04-01T00:54:30;86756.75;;;9.44
64904;BMP280;51401;48.882;12.598;2023-04-01T00:57:01;86896.66;;;9.46
64904;BMP280;51401;48.882;12.598;2023-04-01T00:59:34;86816.06;;;9.44
64904;BMP280;51401;48.882;12.598;2023-04-01T01:02:02;86767.75;;;9.44
64904;BMP280;51401;48.882;12.598;2023-04-01T01:04:31;86813.50;;;9.48
64904;BMP280;51401;48.882;12.598;2023-04-01T01:07:07;86899.22;;;9.44
64904;BMP280;51401;48.882;12.598;2023-04-01T01:16:10;87133.94;;;9.52
64904;BMP280;51401;48.882;12.598;2023-04-01T01:18:18;87222.25;;;9.53
64904;BMP280;51401;48.882;12.598;2023-04-01T01:26:40;87588.47;;;9.57
64904;BMP280;51401;48.882;12.598;2023-04-01T01:29:35;87643.94;;;9.58
64904;BMP280;51401;48.882;12.598;2023-04-01T01:37:34;87667.63;;;9.50
64904;BMP280;51401;48.882;12.598;2023-04-01T01:40:03;87463.09;;;9.44
64904;BMP280;51401;48.882;12.598;2023-04-01T01:42:31;87386.91;;;9.39
64904;BMP280;51401;48.882;12.598;2023-04-01T01:44:59;87279.84;;;9.34
64904;BMP280;51401;48.882;12.598;2023-04-01T01:47:26;87219.28;;;9.35
64904;BMP280;51401;48.882;12.598;2023-04-01T01:49:53;87111.03;;;9.35
64904;BMP280;51401;48.882;12.598;2023-04-01T01:52:19;86929.09;;;9.22
64904;BMP280;51401;48.882;12.598;2023-04-01T01:54:52;86958.81;;;9.25
64904;BMP280;51401;48.882;12.598;2023-04-01T01:57:23;86938.84;;;9.26
64904;BMP280;51401;48.882;12.598;2023-04-01T01:59:50;86893.00;;;9.20
64904;BMP280;51401;48.882;12.598;2023-04-01T02:02:17;87082.59;;;9.31
64904;BMP280;51401;48.882;12.598;2023-04-01T02:04:43;87210.69;;;9.25
64904;BMP280;51401;48.882;12.598;2023-04-01T02:07:23;87192.16;;;9.32
64904;BMP280;51401;48.882;12.598;2023-04-01T02:09:50;87270.81;;;9.33
64904;BMP280;51401;48.882;12.598;2023-04-01T02:12:17;87450.63;;;9.35
64904;BMP280;51401;48.882;12.598;2023-04-01T02:14:54;87500.16;;;9.31
64904;BMP280;51401;48.882;12.598;2023-04-01T02:17:22;87425.38;;;9.29
64904;BMP280;51401;48.882;12.598;2023-04-01T02:20:02;87425.41;;;9.31
64904;BMP280;51401;48.882;12.598;2023-04-01T02:25:52;87530.59;;;9.36
64904;BMP280;51401;48.882;12.598;2023-04-01T02:28:18;87545.38;;;9.36
64904;BMP280;51401;48.882;12.598;2023-04-01T02:30:46;87499.50;;;9.31
64904;BMP280;51401;48.882;12.598;2023-04-01T02:33:12;87491.19;;;9.34
64904;BMP280;51401;48.882;12.598;2023-04-01T02:35:38;87360.34;;;9.33
64904;BMP280;51401;48.882;12.598;2023-04-01T02:38:17;87255.97;;;9.34
64904;BMP280;51401;48.882;12.598;2023-04-01T02:41:02;87291.53;;;9.39
64904;BMP280;51401;48.882;12.598;2023-04-01T02:43:28;87345.78;;;9.43
64904;BMP280;51401;48.882;12.598;2023-04-01T02:46:08;87372.69;;;9.36
64904;BMP280;51401;48.882;12.598;2023-04-01T02:48:34;87310.84;;;9.38
64904;BMP280;51401;48.882;12.598;2023-04-01T02:51:28;87322.41;;;9.35
64904;BMP280;51401;48.882;12.598;2023-04-01T02:53:54;87212.81;;;9.34
64904;BMP280;51401;48.882;12.598;2023-04-01T02:59:43;87006.47;;;9.26
64904;BMP280;51401;48.882;12.598;2023-04-01T03:02:08;86980.75;;;9.28
64904;BMP280;51401;48.882;12.598;2023-04-01T03:04:33;86978.84;;;9.29
64904;BMP280;51401;48.882;12.598;2023-04-01T03:06:59;87014.94;;;9.29
64904;BMP280;51401;48.882;12.598;2023-04-01T03:09:24;86985.22;;;9.26
64904;BMP280;51401;48.882;12.598;2023-04-01T03:11:49;87040.03;;;9.28
64904;BMP280;51401;48.882;12.598;2023-04-01T03:14:15;87069.66;;;9.27
64904;BMP280;51401;48.882;12.598;2023-04-01T03:16:40;87115.44;;;9.29
64904;BMP280;51401;48.882;12.598;2023-04-01T03:19:05;87188.91;;;9.32
64904;BMP280;51401;48.882;12.598;2023-04-01T03:21:40;87183.69;;;9.28
64904;BMP280;51401;48.882;12.598;2023-04-01T03:24:14;87203.66;;;9.27
64904;BMP280;51401;48.882;12.598;2023-04-01T03:26:39;87236.56;;;9.29
64904;BMP280;51401;48.882;12.598;2023-04-01T03:29:05;87188.09;;;9.23
64904;BMP280;51401;48.882;12.598;2023-04-01T03:34:24;87088.22;;;9.22
64904;BMP280;51401;48.882;12.598;2023-04-01T03:36:50;87100.44;;;9.21
64904;BMP280;51401;48.882;12.598;2023-04-01T03:39:16;87034.59;;;9.14
64904;BMP280;51401;48.882;12.598;2023-04-01T03:41:44;86917.34;;;9.11
64904;BMP280;51401;48.882;12.598;2023-04-01T03:44:09;86910.25;;;9.12
64904;BMP280;51401;48.882;12.598;2023-04-01T03:46:35;86964.34;;;9.12
64904;BMP280;51401;48.882;12.598;2023-04-01T03:49:00;87015.84;;;9.10
64904;BMP280;51401;48.882;12.598;2023-04-01T03:51:26;86973.84;;;9.03
64904;BMP280;51401;48.882;12.598;2023-04-01T03:53:51;86943.06;;;9.09
64904;BMP280;51401;48.882;12.598;2023-04-01T03:56:16;86942.41;;;9.09
64904;BMP280;51401;48.882;12.598;2023-04-01T03:58:42;86959.09;;;9.06
64904;BMP280;51401;48.882;12.598;2023-04-01T04:01:18;86919.75;;;9.02
64904;BMP280;51401;48.882;12.598;2023-04-01T04:03:45;87010.63;;;9.06
64904;BMP280;51401;48.882;12.598;2023-04-01T04:06:12;87056.28;;;9.03
64904;BMP280;51401;48.882;12.598;2023-04-01T04:08:38;86993.13;;;9.01
64904;BMP280;51401;48.882;12.598;2023-04-01T04:11:03;86950.63;;;9.00
64904;BMP280;51401;48.882;12.598;2023-04-01T04:13:29;87096.84;;;9.01
64904;BMP280;51401;48.882;12.598;2023-04-01T04:15:58;87219.16;;;9.00
64904;BMP280;51401;48.882;12.598;2023-04-01T04:18:23;87083.28;;;9.01
64904;BMP280;51401;48.882;12.598;2023-04-01T04:23:58;87170.66;;;8.91
64904;BMP280;51401;48.882;12.598;2023-04-01T04:26:24;87188.69;;;8.91
64904;BMP280;51401;48.882;12.598;2023-04-01T04:28:50;87212.59;;;8.93
64904;BMP280;51401;48.882;12.598;2023-04-01T04:31:23;87298.22;;;8.94
64904;BMP280;51401;48.882;12.598;2023-04-01T04:37:21;87217.63;;;8.89
64904;BMP280;51401;48.882;12.598;2023-04-01T04:39:46;87240.03;;;8.85
64904;BMP280;51401;48.882;12.598;2023-04-01T04:42:11;87220.13;;;8.85
64904;BMP280;51401;48.882;12.598;2023-04-01T04:44:37;87160.19;;;8.83
64904;BMP280;51401;48.882;12.598;2023-04-01T04:47:02;87180.91;;;8.89
64904;BMP280;51401;48.882;12.598;2023-04-01T04:49:27;87130.59;;;8.84
64904;BMP280;51401;48.882;12.598;2023-04-01T04:52:13;87111.28;;;8.85
64904;BMP280;51401;48.882;12.598;2023-04-01T04:54:38;87041.72;;;8.83
64904;BMP280;51401;48.882;12.598;2023-04-01T04:57:03;87137.00;;;8.83
64904;BMP280;51401;48.882;12.598;2023-04-01T04:59:30;87030.13;;;8.82
64904;BMP280;51401;48.882;12.598;2023-04-01T05:01:56;86655.97;;;8.73
64904;BMP280;51401;48.882;12.598;2023-04-01T05:04:22;86452.63;;;8.77
64904;BMP280;51401;48.882;12.598;2023-04-01T05:06:47;86430.13;;;8.78
64904;BMP280;51401;48.882;12.598;2023-04-01T05:09:12;86356.09;;;8.76
64904;BMP280;51401;48.882;12.598;2023-04-01T05:11:37;86293.66;;;8.76
64904;BMP280;51401;48.882;12.598;2023-04-01T05:14:03;86308.50;;;8.81
64904;BMP280;51401;48.882;12.598;2023-04-01T05:16:28;86355.50;;;8.82
64904;BMP280;51401;48.882;12.598;2023-04-01T05:18:53;86413.41;;;8.81
64904;BMP280;51401;48.882;12.598;2023-04-01T05:21:18;86385.06;;;8.79
64904;BMP280;51401;48.882;12.598;2023-04-01T05:23:44;86436.59;;;8.83
64904;BMP280;51401;48.882;12.598;2023-04-01T05:26:13;86556.97;;;8.82
64904;BMP280;51401;48.882;12.598;2023-04-01T05:28:39;86614.19;;;8.79
64904;BMP280;51401;48.882;12.598;2023-04-01T05:31:06;86599.41;;;8.79
64904;BMP280;51401;48.882;12.598;2023-04-01T05:33:32;86631.63;;;8.80
64904;BMP280;51401;48.882;12.598;2023-04-01T05:36:06;86620.59;;;8.76
64904;BMP280;51401;48.882;12.598;2023-04-01T05:38:31;86677.97;;;8.80
64904;BMP280;51401;48.882;12.598;2023-04-01T05:41:00;86679.91;;;8.82
64904;BMP280;51401;48.882;12.598;2023-04-01T05:43:26;86796.44;;;8.82
64904;BMP280;51401;48.882;12.598;2023-04-01T05:45:51;86885.19;;;8.79
64904;BMP280;51401;48.882;12.598;2023-04-01T05:48:16;86901.31;;;8.80
64904;BMP280;51401;48.882;12.598;2023-04-01T05:50:42;86952.50;;;8.97
64904;BMP280;51401;48.882;12.598;2023-04-01T05:53:07;87090.47;;;9.06
64904;BMP280;51401;48.882;12.598;2023-04-01T05:55:35;87290.13;;;9.05
64904;BMP280;51401;48.882;12.598;2023-04-01T05:58:00;87419.13;;;9.11
64904;BMP280;51401;48.882;12.598;2023-04-01T06:00:25;87557.53;;;9.08
64904;BMP280;51401;48.882;12.598;2023-04-01T06:02:50;87619.53;;;9.14
64904;BMP280;51401;48.882;12.598;2023-04-01T06:05:22;87793.66;;;9.19
64904;BMP280;51401;48.882;12.598;2023-04-01T06:07:51;87848.56;;;9.24
64904;BMP280;51401;48.882;12.598;2023-04-01T06:10:18;87925.22;;;9.23
64904;BMP280;51401;48.882;12.598;2023-04-01T06:12:56;87872.41;;;9.24
64904;BMP280;51401;48.882;12.598;2023-04-01T06:15:34;87970.19;;;9.18
64904;BMP280;51401;48.882;12.598;2023-04-01T06:24:31;88019.97;;;9.23
64904;BMP280;51401;48.882;12.598;2023-04-01T06:27:16;88041.47;;;9.29
64904;BMP280;51401;48.882;12.598;2023-04-01T06:29:51;88089.16;;;9.30
64904;BMP280;51401;48.882;12.598;2023-04-01T06:38:13;88175.94;;;9.41
64904;BMP280;51401;48.882;12.598;2023-04-01T06:46:19;88309.25;;;9.54
64904;BMP280;51401;48.882;12.598;2023-04-01T06:54:40;88314.47;;;9.56
64904;BMP280;51401;48.882;12.598;2023-04-01T06:59:44;88419.81;;;9.61
64904;BMP280;51401;48.882;12.598;2023-04-01T07:04:39;88453.59;;;9.67
64904;BMP280;51401;48.882;12.598;2023-04-01T07:07:14;88504.59;;;9.68
64904;BMP280;51401;48.882;12.598;2023-04-01T07:09:49;88569.25;;;9.72
64904;BMP280;51401;48.882;12.598;2023-04-01T07:12:32;88592.56;;;9.74
64904;BMP280;51401;48.882;12.598;2023-04-01T07:15:16;88639.34;;;9.82
64904;BMP280;51401;48.882;12.598;2023-04-01T07:17:43;88706.16;;;9.90
64904;BMP280;51401;48.882;12.598;2023-04-01T07:20:30;88717.50;;;10.13
64904;BMP280;51401;48.882;12.598;2023-04-01T07:23:02;88811.31;;;10.18
64904;BMP280;51401;48.882;12.598;2023-04-01T07:25:34;88895.75;;;10.28
64904;BMP280;51401;48.882;12.598;2023-04-01T07:28:03;88934.56;;;10.30
64904;BMP280;51401;48.882;12.598;2023-04-01T07:30:49;88961.69;;;10.45
64904;BMP280;51401;48.882;12.598;2023-04-01T07:33:19;89098.84;;;10.35
64904;BMP280;51401;48.882;12.598;2023-04-01T07:35:54;89145.53;;;10.39
64904;BMP280;51401;48.882;12.598;2023-04-01T07:38:44;89145.91;;;10.47
64904;BMP280;51401;48.882;12.598;2023-04-01T07:43:56;89205.63;;;10.53
64904;BMP280;51401;48.882;12.598;2023-04-01T07:49:12;89218.09;;;10.96
64904;BMP280;51401;48.882;12.598;2023-04-01T07:51:57;89505.19;;;11.21
64904;BMP280;51401;48.882;12.598;2023-04-01T07:54:56;89796.34;;;11.22
64904;BMP280;51401;48.882;12.598;2023-04-01T08:00:25;89923.63;;;11.41
64904;BMP280;51401;48.882;12.598;2023-04-01T08:05:55;90145.38;;;11.07
64904;BMP280;51401;48.882;12.598;2023-04-01T08:17:07;90273.84;;;11.32
64904;BMP280;51401;48.882;12.598;2023-04-01T08:19:54;90234.09;;;11.69
64904;BMP280;51401;48.882;12.598;2023-04-01T08:22:32;90438.91;;;11.62
64904;BMP280;51401;48.882;12.598;2023-04-01T08:25:04;90565.38;;;11.65
64904;BMP280;51401;48.882;12.598;2023-04-01T08:27:53;90631.94;;;11.53
64904;BMP280;51401;48.882;12.598;2023-04-01T08:30:25;90612.56;;;11.36
64904;BMP280;51401;48.882;12.598;2023-04-01T08:32:57;90564.47;;;11.23
64904;BMP280;51401;48.882;12.598;2023-04-01T08:35:36;90568.56;;;11.08
64904;BMP280;51401;48.882;12.598;2023-04-01T08:38:11;90479.91;;;11.07
64904;BMP280;51401;48.882;12.598;2023-04-01T08:51:48;90277.56;;;11.50
64904;BMP280;51401;48.882;12.598;2023-04-01T08:56:59;90722.22;;;12.04
64904;BMP280;51401;48.882;12.598;2023-04-01T08:59:42;91053.66;;;12.26
64904;BMP280;51401;48.882;12.598;2023-04-01T09:02:42;91280.69;;;12.10
64904;BMP280;51401;48.882;12.598;2023-04-01T09:16:26;91535.97;;;12.65
64904;BMP280;51401;48.882;12.598;2023-04-01T09:19:15;91579.78;;;12.61
64904;BMP280;51401;48.882;12.598;2023-04-01T09:21:58;91537.63;;;12.53
64904;BMP280;51401;48.882;12.598;2023-04-01T09:28:14;91504.59;;;12.05
64904;BMP280;51401;48.882;12.598;2023-04-01T09:36:45;91267.78;;;11.86
64904;BMP280;51401;48.882;12.598;2023-04-01T09:39:20;91203.69;;;11.86
64904;BMP280;51401;48.882;12.598;2023-04-01T09:54:58;91327.56;;;12.05
64904;BMP280;51401;48.882;12.598;2023-04-01T10:00:49;91435.03;;;12.52
64904;BMP280;51401;48.882;12.598;2023-04-01T10:03:58;91523.31;;;12.68
64904;BMP280;51401;48.882;12.598;2023-04-01T10:06:51;91456.41;;;12.76
64904;BMP280;51401;48.882;12.598;2023-04-01T10:17:56;91461.22;;;11.98
64904;BMP280;51401;48.882;12.598;2023-04-01T10:20:46;91463.69;;;11.96
64904;BMP280;51401;48.882;12.598;2023-04-01T10:23:21;91445.00;;;11.98
64904;BMP280;51401;48.882;12.598;2023-04-01T10:29:02;91354.13;;;11.96
64904;BMP280;51401;48.882;12.598;2023-04-01T10:48:45;91482.59;;;12.54
64904;BMP280;51401;48.882;12.598;2023-04-01T10:51:26;91559.84;;;12.39
64904;BMP280;51401;48.882;12.598;2023-04-01T10:54:25;91512.91;;;12.28
64904;BMP280;51401;48.882;12.598;2023-04-01T11:08:50;91479.88;;;12.69
64904;BMP280;51401;48.882;12.598;2023-04-01T11:17:11;91633.94;;;12.57
64904;BMP280;51401;48.882;12.598;2023-04-01T11:31:04;91554.09;;;12.48
64904;BMP280;51401;48.882;12.598;2023-04-01T11:33:38;91528.59;;;12.37
64904;BMP280;51401;48.882;12.598;2023-04-01T11:41:56;91083.25;;;12.13
64904;BMP280;51401;48.882;12.598;2023-04-01T11:44:26;90826.97;;;12.19
64904;BMP280;51401;48.882;12.598;2023-04-01T11:47:09;90916.06;;;12.14
64904;BMP280;51401;48.882;12.598;2023-04-01T12:03:24;91185.84;;;12.59
64904;BMP280;51401;48.882;12.598;2023-04-01T12:15:00;90885.41;;;12.39
64904;BMP280;51401;48.882;12.598;2023-04-01T12:17:29;90858.38;;;12.61
64904;BMP280;51401;48.882;12.598;2023-04-01T12:20:22;91104.03;;;12.49
64904;BMP280;51401;48.882;12.598;2023-04-01T12:23:03;91280.34;;;12.39
64904;BMP280;51401;48.882;12.598;2023-04-01T12:31:10;91029.22;;;12.55
64904;BMP280;51401;48.882;12.598;2023-04-01T12:33:51;90876.13;;;12.45
64904;BMP280;51401;48.882;12.598;2023-04-01T12:36:48;90778.63;;;12.52
64904;BMP280;51401;48.882;12.598;2023-04-01T12:56:14;88031.75;;;10.91
64904;BMP280;51401;48.882;12.598;2023-04-01T12:59:21;88084.06;;;10.68
64904;BMP280;51401;48.882;12.598;2023-04-01T13:02:10;87755.94;;;10.43
64904;BMP280;51401;48.882;12.598;2023-04-01T13:15:38;85255.84;;;10.36
64904;BMP280;51401;48.882;12.598;2023-04-01T13:18:28;84679.13;;;10.41
64904;BMP280;51401;48.882;12.598;2023-04-01T13:21:16;83860.78;;;10.25
64904;BMP280;51401;48.882;12.598;2023-04-01T13:27:09;81989.50;;;10.25
64904;BMP280;51401;48.882;12.598;2023-04-01T13:29:41;81267.84;;;10.20
64904;BMP280;51401;48.882;12.598;2023-04-01T13:32:36;80581.56;;;10.19
64904;BMP280;51401;48.882;12.598;2023-04-01T13:40:44;81938.44;;;10.46
64904;BMP280;51401;48.882;12.598;2023-04-01T13:43:15;82159.16;;;10.41
64904;BMP280;51401;48.882;12.598;2023-04-01T13:51:10;83490.97;;;10.36
64904;BMP280;51401;48.882;12.598;2023-04-01T13:53:55;83628.81;;;10.23
64904;BMP280;51401;48.882;12.598;2023-04-01T13:56:42;82991.38;;;10.24
64904;BMP280;51401;48.882;12.598;2023-04-01T14:02:13;81381.31;;;9.85
64904;BMP280;51401;48.882;12.598;2023-04-01T14:15:42;76346.31;;;9.93
64904;BMP280;51401;48.882;12.598;2023-04-01T14:23:50;74143.09;;;10.03
64904;BMP280;51401;48.882;12.598;2023-04-01T14:31:43;72735.06;;;9.97
64904;BMP280;51401;48.882;12.598;2023-04-01T14:34:26;72420.44;;;9.87
64904;BMP280;51401;48.882;12.598;2023-04-01T14:37:13;72281.13;;;9.81
64904;BMP280;51401;48.882;12.598;2023-04-01T14:47:53;70116.19;;;9.71
64904;BMP280;51401;48.882;12.598;2023-04-01T14:50:25;68922.38;;;9.65
64904;BMP280;51401;48.882;12.598;2023-04-01T14:58:14;63980.63;;;9.61
64904;BMP280;51401;48.882;12.598;2023-04-01T15:01:07;62544.13;;;9.48
64904;BMP280;51401;48.882;12.598;2023-04-01T15:03:53;60456.13;;;9.65
64904;BMP280;51401;48.882;12.598;2023-04-01T15:11:53;55934.69;;;9.61
64904;BMP280;51401;48.882;12.598;2023-04-01T15:14:31;54586.44;;;9.58
64904;BMP280;51401;48.882;12.598;2023-04-01T15:22:47;50503.13;;;9.72
64904;BMP280;51401;48.882;12.598;2023-04-01T15:36:41;45897.06;;;9.98
64904;BMP280;51401;48.882;12.598;2023-04-01T15:39:17;45584.97;;;9.95
64904;BMP280;51401;48.882;12.598;2023-04-01T15:41:57;44560.16;;;10.07
64904;BMP280;51401;48.882;12.598;2023-04-01T15:55:40;44065.41;;;9.83
64904;BMP280;51401;48.882;12.598;2023-04-01T16:09:02;43123.59;;;9.84
64904;BMP280;51401;48.882;12.598;2023-04-01T16:11:47;42754.03;;;9.95
64904;BMP280;51401;48.882;12.598;2023-04-01T16:14:45;42507.13;;;9.98
64904;BMP280;51401;48.882;12.598;2023-04-01T16:17:34;42854.94;;;9.85
64904;BMP280;51401;48.882;12.598;2023-04-01T16:20:19;42639.41;;;9.90
64904;BMP280;51401;48.882;12.598;2023-04-01T16:23:16;42582.66;;;9.84
64904;BMP280;51401;48.882;12.598;2023-04-01T16:25:49;42327.88;;;9.83
64904;BMP280;51401;48.882;12.598;2023-04-01T16:28:32;41984.00;;;9.90
64904;BMP280;51401;48.882;12.598;2023-04-01T16:34:01;41675.66;;;9.92
64904;BMP280;51401;48.882;12.598;2023-04-01T16:47:35;41251.47;;;9.87
64904;BMP280;51401;48.882;12.598;2023-04-01T16:50:13;40944.91;;;9.88
64904;BMP280;51401;48.882;12.598;2023-04-01T16:52:57;40755.66;;;9.90
64904;BMP280;51401;48.882;12.598;2023-04-01T16:55:35;40739.88;;;9.89
64904;BMP280;51401;48.882;12.598;2023-04-01T16:58:07;40335.06;;;9.96
64904;BMP280;51401;48.882;12.598;2023-04-01T17:01:03;40804.25;;;9.86
64904;BMP280;51401;48.882;12.598;2023-04-01T17:03:37;40817.81;;;9.83
64904;BMP280;51401;48.882;12.598;2023-04-01T17:12:11;41553.94;;;9.74
64904;BMP280;51401;48.882;12.598;2023-04-01T17:15:21;41511.84;;;9.81
64904;BMP280;51401;48.882;12.598;2023-04-01T17:21:05;41846.94;;;9.76
64904;BMP280;51401;48.882;12.598;2023-04-01T17:23:45;41483.06;;;9.84
64904;BMP280;51401;48.882;12.598;2023-04-01T17:26:41;41511.25;;;9.84
64904;BMP280;51401;48.882;12.598;2023-04-01T17:29:29;41288.44;;;9.85
64904;BMP280;51401;48.882;12.598;2023-04-01T17:32:13;41468.13;;;9.84
64904;BMP280;51401;48.882;12.598;2023-04-01T17:37:33;41524.88;;;9.77
64904;BMP280;51401;48.882;12.598;2023-04-01T17:42:42;41684.84;;;9.68
64904;BMP280;51401;48.882;12.598;2023-04-01T17:45:24;41910.72;;;9.68
64904;BMP280;51401;48.882;12.598;2023-04-01T18:02:03;42196.09;;;9.65
64904;BMP280;51401;48.882;12.598;2023-04-01T18:10:12;42364.19;;;9.62
64904;BMP280;51401;48.882;12.598;2023-04-01T18:23:54;42534.78;;;9.59
64904;BMP280;51401;48.882;12.598;2023-04-01T18:26:33;42418.63;;;9.64
64904;BMP280;51401;48.882;12.598;2023-04-01T18:29:04;42366.44;;;9.62
64904;BMP280;51401;48.882;12.598;2023-04-01T18:31:40;42363.03;;;9.60
64904;BMP280;51401;48.882;12.598;2023-04-01T18:34:08;42261.22;;;9.60
64904;BMP280;51401;48.882;12.598;2023-04-01T18:36:55;42305.50;;;9.62
64904;BMP280;51401;48.882;12.598;2023-04-01T18:39:40;42443.41;;;9.59
64904;BMP280;51401;48.882;12.598;2023-04-01T18:42:31;42326.94;;;9.59
64904;BMP280;51401;48.882;12.598;2023-04-01T18:45:32;42513.31;;;9.57
64904;BMP280;51401;48.882;12.598;2023-04-01T18:50:37;42333.97;;;9.54
64904;BMP280;51401;48.882;12.598;2023-04-01T18:56:14;42392.34;;;9.54
64904;BMP280;51401;48.882;12.598;2023-04-01T18:58:46;42027.75;;;9.60
64904;BMP280;51401;48.882;12.598;2023-04-01T19:01:31;42420.50;;;9.50
64904;BMP280;51401;48.882;12.598;2023-04-01T19:06:58;42127.84;;;9.57
64904;BMP280;51401;48.882;12.598;2023-04-01T19:09:44;42100.50;;;9.58
64904;BMP280;51401;48.882;12.598;2023-04-01T19:20:22;42276.16;;;9.50
64904;BMP280;51401;48.882;12.598;2023-04-01T19:25:54;42518.09;;;9.52
64904;BMP280;51401;48.882;12.598;2023-04-01T19:28:49;42847.63;;;9.42
64904;BMP280;51401;48.882;12.598;2023-04-01T19:36:59;42936.59;;;9.51
64904;BMP280;51401;48.882;12.598;2023-04-01T19:39:45;43051.31;;;9.48
64904;BMP280;51401;48.882;12.598;2023-04-01T19:42:35;43210.66;;;9.47
64904;BMP280;51401;48.882;12.598;2023-04-01T19:48:10;43254.38;;;9.48
64904;BMP280;51401;48.882;12.598;2023-04-01T19:50:47;43378.97;;;9.44
64904;BMP280;51401;48.882;12.598;2023-04-01T19:55:59;43617.16;;;9.39
64904;BMP280;51401;48.882;12.598;2023-04-01T20:01:20;43990.63;;;9.39
64904;BMP280;51401;48.882;12.598;2023-04-01T20:03:54;44231.69;;;9.35
64904;BMP280;51401;48.882;12.598;2023-04-01T20:06:27;44348.47;;;9.35
64904;BMP280;51401;48.882;12.598;2023-04-01T20:09:11;44514.56;;;9.41
64904;BMP280;51401;48.882;12.598;2023-04-01T20:11:55;44707.47;;;9.45
64904;BMP280;51401;48.882;12.598;2023-04-01T20:14:45;45274.69;;;9.34
64904;BMP280;51401;48.882;12.598;2023-04-01T20:25:21;46797.00;;;9.31
64904;BMP280;51401;48.882;12.598;2023-04-01T20:28:14;47085.28;;;9.48
64904;BMP280;51401;48.882;12.598;2023-04-01T20:33:43;48628.41;;;9.59
64904;BMP280;51401;48.882;12.598;2023-04-01T20:36:21;49794.72;;;9.71
64904;BMP280;51401;48.882;12.598;2023-04-01T20:39:15;51265.56;;;9.74
64904;BMP280;51401;48.882;12.598;2023-04-01T20:41:54;52881.06;;;9.74
64904;BMP280;51401;48.882;12.598;2023-04-01T20:44:33;54638.16;;;9.75
64904;BMP280;51401;48.882;12.598;2023-04-01T20:50:01;58103.06;;;9.75
64904;BMP280;51401;48.882;12.598;2023-04-01T20:52:49;60130.06;;;9.71
64904;BMP280;51401;48.882;12.598;2023-04-01T21:01:19;65750.91;;;9.71
64904;BMP280;51401;48.882;12.598;2023-04-01T21:09:44;70027.97;;;9.75
64904;BMP280;51401;48.882;12.598;2023-04-01T21:12:24;71266.63;;;9.78
64904;BMP280;51401;48.882;12.598;2023-04-01T21:22:53;75022.69;;;9.76
64904;BMP280;51401;48.882;12.598;2023-04-01T21:26:03;75893.44;;;9.65
64904;BMP280;51401;48.882;12.598;2023-04-01T21:28:41;76401.09;;;9.75
64904;BMP280;51401;48.882;12.598;2023-04-01T21:34:00;77167.78;;;9.69
64904;BMP280;51401;48.882;12.598;2023-04-01T21:59:03;78249.56;;;9.63
64904;BMP280;51401;48.882;12.598;2023-04-01T22:05:03;78022.13;;;9.57
64904;BMP280;51401;48.882;12.598;2023-04-01T22:07:31;77994.75;;;9.60
64904;BMP280;51401;48.882;12.598;2023-04-01T22:10:15;78103.03;;;9.63
64904;BMP280;51401;48.882;12.598;2023-04-01T22:13:39;78094.41;;;9.60
64904;BMP280;51401;48.882;12.598;2023-04-01T22:18:31;78021.03;;;9.61
64904;BMP280;51401;48.882;12.598;2023-04-01T22:21:47;77965.97;;;9.64
64904;BMP280;51401;48.882;12.598;2023-04-01T22:24:37;78028.69;;;9.56
64904;BMP280;51401;48.882;12.598;2023-04-01T22:27:06;77732.53;;;9.56
64904;BMP280;51401;48.882;12.598;2023-04-01T22:29:40;77602.91;;;9.55
64904;BMP280;51401;48.882;12.598;2023-04-01T22:32:12;77500.34;;;9.48
64904;BMP280;51401;48.882;12.598;2023-04-01T22:35:00;77546.34;;;9.50
64904;BMP280;51401;48.882;12.598;2023-04-01T22:43:06;77672.00;;;9.52
64904;BMP280;51401;48.882;12.598;2023-04-01T22:45:42;77845.31;;;9.53
64904;BMP280;51401;48.882;12.598;2023-04-01T22:48:22;78059.44;;;9.52
64904;BMP280;51401;48.882;12.598;2023-04-01T22:56:22;78176.78;;;9.49
64904;BMP280;51401;48.882;12.598;2023-04-01T22:59:10;78206.78;;;9.50
64904;BMP280;51401;48.882;12.598;2023-04-01T23:01:43;78344.16;;;9.51
64904;BMP280;51401;48.882;12.598;2023-04-01T23:04:12;78508.44;;;9.53
64904;BMP280;51401;48.882;12.598;2023-04-01T23:06:46;78657.97;;;9.49
64904;BMP280;51401;48.882;12.598;2023-04-01T23:09:19;78695.97;;;9.49
64904;BMP280;51401;48.882;12.598;2023-04-01T23:11:50;78636.75;;;9.44
64904;BMP280;51401;48.882;12.598;2023-04-01T23:16:56;78501.09;;;9.45
64904;BMP280;51401;48.882;12.598;2023-04-01T23:22:26;78674.59;;;9.39
64904;BMP280;51401;48.882;12.598;2023-04-01T23:33:20;78509.44;;;9.35
64904;BMP280;51401;48.882;12.598;2023-04-01T23:35:51;78451.16;;;9.33
64904;BMP280;51401;48.882;12.598;2023-04-01T23:38:22;78350.59;;;9.31
64904;BMP280;51401;48.882;12.598;2023-04-01T23:40:50;78352.94;;;9.33
64904;BMP280;51401;48.882;12.598;2023-04-01T23:43:31;78326.56;;;9.28
64904;BMP280;51401;48.882;12.598;2023-04-01T23:45:58;78323.66;;;9.25